This is the latest recevied weather packets stored in our database for station/object BM2MWA-13. If no packets are shown the sender has not sent any weather packets the latest 10 day(s).
| Time | Temp. | Humidity | Pressure | Rain* | Wind** | Luminosity | Snow |
|---|---|---|---|---|---|---|---|
| 1787725623 | 31.11° C | 69% | 1001.2 hPa | 0 mm | - | - | - |
| 1787725024 | 31.11° C | 67% | 1001.1 hPa | 0 mm | - | - | - |
| 1787724424 | 31.11° C | 68% | 1001.1 hPa | 0 mm | - | - | - |
| 1787723824 | 31.67° C | 69% | 1001.1 hPa | 0 mm | - | - | - |
| 1787723224 | 31.67° C | 66% | 1001.1 hPa | 0 mm | - | - | - |
| 1787722624 | 31.67° C | 68% | 1001.3 hPa | 0 mm | - | - | - |
| 1787722024 | 31.67° C | 67% | 1001.4 hPa | 0 mm | - | - | - |
| 1787721423 | 31.11° C | 68% | 1001.5 hPa | 0 mm | - | - | - |
| 1787720823 | 30.56° C | 71% | 1001.6 hPa | 0 mm | - | - | - |
| 1787720224 | 30.56° C | 71% | 1001.6 hPa | 0 mm | - | - | - |
| 1787719624 | 30.56° C | 71% | 1001.6 hPa | 0 mm | - | - | - |
| 1787719029 | 31.11° C | 69% | 1001.5 hPa | 0 mm | - | - | - |
| 1787718423 | 30.56° C | 72% | 1001.5 hPa | 0 mm | - | - | - |
| 1787717823 | 31.11° C | 70% | 1001.5 hPa | 0 mm | - | - | - |
| 1787717223 | 31.11° C | 72% | 1001.7 hPa | 0 mm | - | - | - |
| 1787716624 | 31.11° C | 72% | 1001.8 hPa | 0 mm | - | - | - |
| 1787716024 | 31.11° C | 71% | 1001.9 hPa | 0 mm | - | - | - |
| 1787715423 | 31.11° C | 75% | 1002 hPa | 0 mm | - | - | - |
| 1787714824 | 32.22° C | 66% | 1002.2 hPa | 0 mm | - | - | - |
| 1787714224 | 32.22° C | 65% | 1002.5 hPa | 0 mm | - | - | - |
| 1787713627 | 31.11° C | 67% | 1002.6 hPa | 0 mm | - | - | - |
| 1787713024 | 30.56° C | 69% | 1002.6 hPa | 0 mm | - | - | - |
| 1787712424 | 31.11° C | 71% | 1002.5 hPa | 0 mm | - | - | - |
| 1787711823 | 31.11° C | 72% | 1002.6 hPa | 0 mm | - | - | - |
| 1787711224 | 30.56° C | 74% | 1002.7 hPa | 0 mm | - | - | - |
* Rain latest hour (hover to see other rain measurements)
** Current wind speed in m/s (hover to see current wind gust speed)